createdAt,value
2022-12-06T00:04:09.656Z,3.72
2022-12-06T00:09:21.241Z,3.60
2022-12-06T00:14:26.435Z,3.00
2022-12-06T00:19:33.571Z,4.18
2022-12-06T00:24:40.836Z,3.80
2022-12-06T00:29:45.023Z,3.47
2022-12-06T00:34:50.233Z,3.30
2022-12-06T00:39:56.549Z,3.25
2022-12-06T00:45:03.590Z,3.20
2022-12-06T00:50:09.794Z,3.05
2022-12-06T00:55:18.990Z,3.08
2022-12-06T01:00:27.202Z,3.25
2022-12-06T01:05:34.379Z,2.78
2022-12-06T01:10:41.598Z,2.70
2022-12-06T01:15:47.822Z,2.67
2022-12-06T01:20:54.997Z,2.78
2022-12-06T01:26:02.162Z,2.70
2022-12-06T01:31:10.454Z,3.00
2022-12-06T01:36:19.624Z,2.30
2022-12-06T01:41:29.827Z,3.22
2022-12-06T01:46:45.049Z,2.83
2022-12-06T01:51:53.321Z,2.80
2022-12-06T01:57:04.453Z,3.00
2022-12-06T02:02:11.402Z,3.00
2022-12-06T02:07:16.815Z,2.80
2022-12-06T02:12:25.041Z,2.75
2022-12-06T02:17:45.304Z,2.88
2022-12-06T02:23:15.574Z,3.58
2022-12-06T02:33:54.104Z,3.28
2022-12-06T02:39:08.290Z,3.10
2022-12-06T02:44:24.537Z,3.17
2022-12-06T02:49:35.806Z,3.15
2022-12-06T02:54:43.997Z,2.80
2022-12-06T02:59:55.209Z,2.97
2022-12-06T03:05:16.455Z,2.55
2022-12-06T03:10:36.734Z,2.95
2022-12-06T03:15:55.069Z,2.63
2022-12-06T03:21:11.177Z,3.08
2022-12-06T03:26:23.393Z,3.10
2022-12-06T03:31:30.312Z,2.30
2022-12-06T03:36:41.815Z,2.75
2022-12-06T03:41:50.013Z,3.05
2022-12-06T03:47:04.778Z,3.30
2022-12-06T03:52:16.435Z,2.63
2022-12-06T03:57:23.652Z,3.00
2022-12-06T04:02:30.318Z,3.20
2022-12-06T04:07:37.113Z,3.10
2022-12-06T04:13:00.273Z,2.95
2022-12-06T04:18:16.550Z,3.20
2022-12-06T04:23:25.831Z,3.20
2022-12-06T04:28:49.315Z,3.40
2022-12-06T04:34:10.314Z,3.40
2022-12-06T04:39:21.169Z,2.60
2022-12-06T04:44:32.474Z,2.78
2022-12-06T04:49:50.140Z,3.70
2022-12-06T04:54:57.228Z,3.53
2022-12-06T05:00:03.900Z,3.67
2022-12-06T05:05:12.563Z,3.15
2022-12-06T05:10:22.783Z,3.35
2022-12-06T05:15:29.329Z,3.50
2022-12-06T05:20:34.218Z,3.25
2022-12-06T05:25:41.399Z,3.40
2022-12-06T05:30:47.941Z,3.03
2022-12-06T05:35:56.056Z,3.53
2022-12-06T05:41:05.992Z,3.50
2022-12-06T05:46:11.267Z,3.42
2022-12-06T05:51:16.365Z,3.50
2022-12-06T06:01:31.937Z,3.60
2022-12-06T06:06:36.978Z,4.18
2022-12-06T06:16:50.583Z,4.00
2022-12-06T06:21:57.554Z,4.67
2022-12-06T06:27:04.748Z,4.10
2022-12-06T06:32:15.031Z,4.15
2022-12-06T06:37:23.154Z,3.78
2022-12-06T06:42:34.364Z,4.43
2022-12-06T06:47:39.552Z,4.85
2022-12-06T06:52:45.934Z,4.72
2022-12-06T06:57:54.993Z,4.25
2022-12-06T07:02:59.202Z,3.88
2022-12-06T07:08:05.090Z,4.27
2022-12-06T07:13:11.781Z,4.13
2022-12-06T07:18:16.749Z,4.22
2022-12-06T07:23:20.938Z,4.90
2022-12-06T07:28:29.134Z,4.67
2022-12-06T07:33:37.377Z,5.28
2022-12-06T07:38:44.639Z,5.15
2022-12-06T07:44:09.848Z,5.47
2022-12-06T07:49:13.983Z,5.20
2022-12-06T07:54:19.173Z,5.20
2022-12-06T08:04:32.229Z,4.40
2022-12-06T08:09:37.800Z,5.05
2022-12-06T08:14:49.669Z,5.60
2022-12-06T08:19:54.160Z,5.35
2022-12-06T08:25:00.380Z,4.40
2022-12-06T08:30:14.570Z,4.63
2022-12-06T08:35:21.786Z,4.47
2022-12-06T08:40:30.830Z,4.55
2022-12-06T08:45:38.574Z,5.07
2022-12-06T08:50:43.339Z,5.30
2022-12-06T08:56:02.127Z,5.03
2022-12-06T09:01:20.053Z,4.93
2022-12-06T09:06:24.594Z,5.38
2022-12-06T09:11:36.767Z,5.30
2022-12-06T09:16:44.441Z,5.03
2022-12-06T09:21:52.641Z,5.38
2022-12-06T09:26:56.585Z,4.70
2022-12-06T09:32:05.069Z,4.22
2022-12-06T09:37:19.301Z,4.35
2022-12-06T09:43:00.618Z,4.28
2022-12-06T09:48:30.886Z,4.25
2022-12-06T09:53:50.155Z,4.22
2022-12-06T09:59:09.369Z,4.38
2022-12-06T10:04:40.667Z,4.70
2022-12-06T10:09:56.218Z,4.50
2022-12-06T10:15:19.140Z,4.88
2022-12-06T10:20:37.399Z,5.35
2022-12-06T10:25:47.653Z,5.00
2022-12-06T10:30:55.965Z,5.13
2022-12-06T10:36:06.391Z,4.60
2022-12-06T10:41:18.237Z,4.80
2022-12-06T10:46:50.751Z,4.07
2022-12-06T10:52:05.747Z,4.53
2022-12-06T10:57:17.984Z,3.88
2022-12-06T11:02:34.301Z,3.45
2022-12-06T11:07:45.164Z,3.92
2022-12-06T11:12:51.602Z,5.38
2022-12-06T11:18:06.818Z,6.28
2022-12-06T11:28:38.167Z,5.40
2022-12-06T11:33:42.242Z,5.05
2022-12-06T11:38:53.565Z,5.63
2022-12-06T11:44:02.917Z,4.50
2022-12-06T11:49:20.426Z,4.50
2022-12-06T11:54:31.384Z,5.03
2022-12-06T11:59:35.561Z,4.13
2022-12-06T12:04:41.720Z,4.23
2022-12-06T12:09:56.995Z,4.07
2022-12-06T12:15:02.376Z,4.10
2022-12-06T12:20:10.342Z,3.63
2022-12-06T12:25:29.601Z,3.70
2022-12-06T12:30:40.850Z,3.40
2022-12-06T12:35:50.024Z,3.30
2022-12-06T12:41:01.547Z,3.03
2022-12-06T12:46:15.608Z,3.00
2022-12-06T12:51:25.718Z,3.28
2022-12-06T12:56:37.648Z,2.90
2022-12-06T13:01:48.314Z,2.42
2022-12-06T13:06:57.391Z,2.72
2022-12-06T13:12:07.573Z,2.75
2022-12-06T13:17:15.838Z,2.83
2022-12-06T13:22:24.997Z,2.63
2022-12-06T13:27:39.206Z,2.50
2022-12-06T13:32:49.630Z,2.70
2022-12-06T13:37:59.069Z,2.42
2022-12-06T13:43:07.879Z,2.80
2022-12-06T13:48:39.882Z,3.10
2022-12-06T13:54:20.191Z,3.30
2022-12-06T13:59:49.279Z,3.40
2022-12-06T14:04:52.877Z,3.97
2022-12-06T14:09:57.162Z,3.50
2022-12-06T14:15:05.362Z,3.77
2022-12-06T14:20:22.190Z,4.18
2022-12-06T14:25:28.912Z,3.92
2022-12-06T14:30:37.355Z,3.35
2022-12-06T14:35:51.246Z,3.10
2022-12-06T14:41:12.467Z,3.08
2022-12-06T14:46:22.767Z,3.15
2022-12-06T14:51:28.884Z,3.70
2022-12-06T14:56:36.152Z,3.28
2022-12-06T15:01:56.338Z,3.58
2022-12-06T15:07:00.501Z,3.88
2022-12-06T15:12:39.833Z,4.60
2022-12-06T15:17:45.887Z,3.83
2022-12-06T15:22:50.199Z,3.47
2022-12-06T15:27:54.394Z,3.70
2022-12-06T15:33:01.574Z,4.43
2022-12-06T15:38:06.769Z,4.25
2022-12-06T15:43:26.020Z,4.63
2022-12-06T15:48:36.391Z,6.90
2022-12-06T15:53:41.798Z,5.45
2022-12-06T15:58:46.600Z,7.40
2022-12-06T16:03:54.516Z,8.35
2022-12-06T16:09:02.659Z,7.35
2022-12-06T16:14:06.983Z,8.60
2022-12-06T16:19:20.433Z,8.83
2022-12-06T16:24:24.636Z,8.93
2022-12-06T16:29:28.824Z,9.60
2022-12-06T16:34:35.758Z,9.03
2022-12-06T16:39:40.195Z,10.63
2022-12-06T16:44:52.384Z,11.00
2022-12-06T16:49:57.683Z,9.27
2022-12-06T16:55:01.996Z,9.43
2022-12-06T17:00:13.054Z,11.38
2022-12-06T17:05:25.872Z,15.40
2022-12-06T17:10:30.451Z,14.70
2022-12-06T17:15:34.630Z,14.80
2022-12-06T17:20:41.839Z,14.30
2022-12-06T17:25:46.021Z,14.40
2022-12-06T17:30:51.454Z,14.20
2022-12-06T17:36:07.542Z,14.10
2022-12-06T17:41:43.819Z,14.57
2022-12-06T17:46:50.989Z,16.15
2022-12-06T17:51:58.200Z,15.85
2022-12-06T17:57:03.380Z,16.02
2022-12-06T18:02:16.114Z,17.08
2022-12-06T18:07:25.800Z,14.25
2022-12-06T18:12:35.233Z,17.20
2022-12-06T18:17:40.222Z,16.58
2022-12-06T18:22:47.124Z,13.32
2022-12-06T18:27:51.558Z,16.88
2022-12-06T18:32:55.746Z,15.33
2022-12-06T18:38:02.307Z,17.77
2022-12-06T18:43:05.916Z,15.55
2022-12-06T18:48:12.014Z,15.50
2022-12-06T18:53:20.517Z,18.38
2022-12-06T18:58:23.768Z,20.88
2022-12-06T19:03:28.909Z,18.83
2022-12-06T19:08:34.122Z,19.90
2022-12-06T19:13:39.276Z,22.63
2022-12-06T19:18:44.467Z,19.85
2022-12-06T19:23:54.660Z,16.73
2022-12-06T19:29:02.871Z,20.95
2022-12-06T19:34:08.088Z,20.15
2022-12-06T19:39:16.303Z,21.90
2022-12-06T19:44:20.457Z,23.38
2022-12-06T19:49:29.410Z,24.83
2022-12-06T19:54:36.871Z,23.33
2022-12-06T19:59:42.163Z,24.20
2022-12-06T20:04:49.416Z,25.25
2022-12-06T20:09:55.476Z,28.08
2022-12-06T20:15:01.693Z,27.73
2022-12-06T20:20:05.946Z,27.27
2022-12-06T20:25:16.043Z,22.50
2022-12-06T20:30:20.233Z,22.65
2022-12-06T20:35:24.556Z,23.47
2022-12-06T20:40:33.067Z,23.27
2022-12-06T20:45:36.988Z,21.98
2022-12-06T20:50:42.006Z,21.50
2022-12-06T21:00:53.380Z,23.52
2022-12-06T21:06:03.161Z,24.17
2022-12-06T21:11:25.965Z,22.42
2022-12-06T21:16:32.215Z,18.73
2022-12-06T21:21:38.680Z,22.95
2022-12-06T21:26:45.415Z,22.17
2022-12-06T21:31:50.633Z,19.55
2022-12-06T21:36:54.821Z,15.93
2022-12-06T21:42:01.010Z,19.17
2022-12-06T21:47:04.251Z,19.55
2022-12-06T21:52:09.629Z,19.50
2022-12-06T21:57:16.568Z,17.58
2022-12-06T22:02:24.825Z,17.75
2022-12-06T22:07:28.979Z,18.08
2022-12-06T22:12:34.159Z,18.37
2022-12-06T22:17:42.344Z,18.75
2022-12-06T22:22:45.604Z,17.83
2022-12-06T22:27:54.756Z,19.02
2022-12-06T22:32:59.922Z,17.95
2022-12-06T22:38:04.498Z,18.13
2022-12-06T22:43:12.323Z,19.02
2022-12-06T22:48:16.505Z,16.40
2022-12-06T22:53:20.708Z,17.27
2022-12-06T22:58:27.903Z,18.33
2022-12-06T23:03:35.141Z,17.80
2022-12-06T23:08:40.404Z,17.73
2022-12-06T23:13:47.509Z,18.63
2022-12-06T23:18:52.667Z,19.20
2022-12-06T23:24:01.107Z,18.35
2022-12-06T23:29:08.102Z,16.38
2022-12-06T23:34:16.215Z,17.27
2022-12-06T23:39:20.093Z,18.25
2022-12-06T23:44:26.650Z,18.27
2022-12-06T23:49:31.853Z,19.00
2022-12-06T23:54:38.042Z,21.83
2022-12-06T23:59:49.299Z,17.63
